sensor_id;sensor_type;location;lat;lon;timestamp;P1;durP1;ratioP1;P2;durP2;ratioP2
8399;SDS011;4237;47.030;15.396;2023-03-21T00:01:26;3.70;;;2.67;;
8399;SDS011;4237;47.030;15.396;2023-03-21T00:03:55;3.37;;;2.60;;
8399;SDS011;4237;47.030;15.396;2023-03-21T00:06:23;3.80;;;2.73;;
8399;SDS011;4237;47.030;15.396;2023-03-21T00:08:51;4.53;;;2.40;;
8399;SDS011;4237;47.030;15.396;2023-03-21T00:11:20;3.57;;;2.57;;
8399;SDS011;4237;47.030;15.396;2023-03-21T00:13:48;3.33;;;2.73;;
8399;SDS011;4237;47.030;15.396;2023-03-21T00:16:16;5.40;;;2.73;;
8399;SDS011;4237;47.030;15.396;2023-03-21T00:18:46;2.00;;;1.80;;
8399;SDS011;4237;47.030;15.396;2023-03-21T00:21:17;5.17;;;2.23;;
8399;SDS011;4237;47.030;15.396;2023-03-21T00:23:46;2.97;;;2.07;;
8399;SDS011;4237;47.030;15.396;2023-03-21T00:26:14;2.97;;;2.00;;
8399;SDS011;4237;47.030;15.396;2023-03-21T00:28:43;3.00;;;2.33;;
8399;SDS011;4237;47.030;15.396;2023-03-21T00:31:12;2.60;;;2.20;;
8399;SDS011;4237;47.030;15.396;2023-03-21T00:33:40;3.30;;;2.30;;
8399;SDS011;4237;47.030;15.396;2023-03-21T00:36:08;3.20;;;2.27;;
8399;SDS011;4237;47.030;15.396;2023-03-21T00:38:37;3.17;;;2.60;;
8399;SDS011;4237;47.030;15.396;2023-03-21T00:41:09;5.57;;;2.70;;
8399;SDS011;4237;47.030;15.396;2023-03-21T00:43:38;5.57;;;2.40;;
8399;SDS011;4237;47.030;15.396;2023-03-21T00:46:06;3.60;;;2.77;;
8399;SDS011;4237;47.030;15.396;2023-03-21T00:48:35;11.40;;;4.00;;
8399;SDS011;4237;47.030;15.396;2023-03-21T00:51:09;4.30;;;3.20;;
8399;SDS011;4237;47.030;15.396;2023-03-21T00:53:32;4.03;;;2.73;;
8399;SDS011;4237;47.030;15.396;2023-03-21T00:56:01;3.63;;;2.80;;
8399;SDS011;4237;47.030;15.396;2023-03-21T00:58:29;3.30;;;2.77;;
8399;SDS011;4237;47.030;15.396;2023-03-21T01:00:57;3.87;;;2.83;;
8399;SDS011;4237;47.030;15.396;2023-03-21T01:03:27;5.40;;;2.97;;
8399;SDS011;4237;47.030;15.396;2023-03-21T01:05:55;4.83;;;3.10;;
8399;SDS011;4237;47.030;15.396;2023-03-21T01:08:37;9.83;;;5.93;;
8399;SDS011;4237;47.030;15.396;2023-03-21T01:11:07;10.43;;;4.70;;
8399;SDS011;4237;47.030;15.396;2023-03-21T01:13:35;7.60;;;5.03;;
8399;SDS011;4237;47.030;15.396;2023-03-21T01:16:04;9.43;;;6.10;;
8399;SDS011;4237;47.030;15.396;2023-03-21T01:18:34;11.67;;;5.73;;
8399;SDS011;4237;47.030;15.396;2023-03-21T01:21:05;7.83;;;5.57;;
8399;SDS011;4237;47.030;15.396;2023-03-21T01:23:32;10.60;;;4.87;;
8399;SDS011;4237;47.030;15.396;2023-03-21T01:26:01;12.50;;;5.37;;
8399;SDS011;4237;47.030;15.396;2023-03-21T01:28:29;14.70;;;5.50;;
8399;SDS011;4237;47.030;15.396;2023-03-21T01:30:59;9.13;;;5.17;;
8399;SDS011;4237;47.030;15.396;2023-03-21T01:33:28;16.37;;;6.07;;
8399;SDS011;4237;47.030;15.396;2023-03-21T01:35:56;9.10;;;5.37;;
8399;SDS011;4237;47.030;15.396;2023-03-21T01:38:25;16.80;;;6.43;;
8399;SDS011;4237;47.030;15.396;2023-03-21T01:40:53;10.40;;;5.90;;
8399;SDS011;4237;47.030;15.396;2023-03-21T01:43:29;9.70;;;6.77;;
8399;SDS011;4237;47.030;15.396;2023-03-21T01:48:39;11.90;;;6.13;;
8399;SDS011;4237;47.030;15.396;2023-03-21T01:51:09;12.30;;;6.60;;
8399;SDS011;4237;47.030;15.396;2023-03-21T01:53:38;9.67;;;6.37;;
8399;SDS011;4237;47.030;15.396;2023-03-21T01:56:11;12.47;;;7.00;;
8399;SDS011;4237;47.030;15.396;2023-03-21T01:58:40;11.87;;;6.93;;
8399;SDS011;4237;47.030;15.396;2023-03-21T02:01:09;13.07;;;7.10;;
8399;SDS011;4237;47.030;15.396;2023-03-21T02:03:39;11.40;;;7.13;;
8399;SDS011;4237;47.030;15.396;2023-03-21T02:06:12;17.67;;;8.47;;
8399;SDS011;4237;47.030;15.396;2023-03-21T02:08:43;15.87;;;8.70;;
8399;SDS011;4237;47.030;15.396;2023-03-21T02:11:11;20.60;;;9.50;;
8399;SDS011;4237;47.030;15.396;2023-03-21T02:13:39;14.77;;;9.43;;
8399;SDS011;4237;47.030;15.396;2023-03-21T02:18:53;16.63;;;9.57;;
8399;SDS011;4237;47.030;15.396;2023-03-21T02:26:57;18.03;;;10.60;;
8399;SDS011;4237;47.030;15.396;2023-03-21T02:34:33;16.77;;;8.90;;
8399;SDS011;4237;47.030;15.396;2023-03-21T02:37:09;13.47;;;8.40;;
8399;SDS011;4237;47.030;15.396;2023-03-21T02:39:41;13.17;;;6.40;;
8399;SDS011;4237;47.030;15.396;2023-03-21T02:42:21;12.13;;;7.70;;
8399;SDS011;4237;47.030;15.396;2023-03-21T02:44:43;6.87;;;3.80;;
8399;SDS011;4237;47.030;15.396;2023-03-21T02:47:12;7.00;;;3.37;;
8399;SDS011;4237;47.030;15.396;2023-03-21T02:49:54;5.80;;;3.30;;
8399;SDS011;4237;47.030;15.396;2023-03-21T02:52:22;8.70;;;5.50;;
8399;SDS011;4237;47.030;15.396;2023-03-21T02:54:51;10.73;;;6.87;;
8399;SDS011;4237;47.030;15.396;2023-03-21T02:57:20;11.50;;;7.03;;
8399;SDS011;4237;47.030;15.396;2023-03-21T02:59:48;11.67;;;7.00;;
8399;SDS011;4237;47.030;15.396;2023-03-21T03:02:19;10.33;;;7.00;;
8399;SDS011;4237;47.030;15.396;2023-03-21T03:04:47;10.60;;;6.73;;
8399;SDS011;4237;47.030;15.396;2023-03-21T03:07:22;11.43;;;6.40;;
8399;SDS011;4237;47.030;15.396;2023-03-21T03:15:17;14.63;;;8.77;;
8399;SDS011;4237;47.030;15.396;2023-03-21T03:17:46;15.23;;;9.20;;
8399;SDS011;4237;47.030;15.396;2023-03-21T03:20:17;17.87;;;9.03;;
8399;SDS011;4237;47.030;15.396;2023-03-21T03:22:48;16.17;;;9.10;;
8399;SDS011;4237;47.030;15.396;2023-03-21T03:25:18;13.03;;;8.40;;
8399;SDS011;4237;47.030;15.396;2023-03-21T03:27:47;16.90;;;8.57;;
8399;SDS011;4237;47.030;15.396;2023-03-21T03:30:16;17.40;;;8.80;;
8399;SDS011;4237;47.030;15.396;2023-03-21T03:32:49;13.90;;;8.60;;
8399;SDS011;4237;47.030;15.396;2023-03-21T03:35:18;19.73;;;9.10;;
8399;SDS011;4237;47.030;15.396;2023-03-21T03:37:50;14.87;;;9.13;;
8399;SDS011;4237;47.030;15.396;2023-03-21T03:40:25;20.13;;;9.83;;
8399;SDS011;4237;47.030;15.396;2023-03-21T03:42:48;17.73;;;9.70;;
8399;SDS011;4237;47.030;15.396;2023-03-21T03:45:19;18.37;;;9.50;;
8399;SDS011;4237;47.030;15.396;2023-03-21T03:50:35;16.93;;;9.57;;
8399;SDS011;4237;47.030;15.396;2023-03-21T03:53:05;13.83;;;9.23;;
8399;SDS011;4237;47.030;15.396;2023-03-21T03:55:28;13.93;;;9.57;;
8399;SDS011;4237;47.030;15.396;2023-03-21T03:58:00;13.30;;;9.47;;
8399;SDS011;4237;47.030;15.396;2023-03-21T04:00:30;19.43;;;9.60;;
8399;SDS011;4237;47.030;15.396;2023-03-21T04:02:58;13.70;;;9.90;;
8399;SDS011;4237;47.030;15.396;2023-03-21T04:05:26;16.30;;;9.33;;
8399;SDS011;4237;47.030;15.396;2023-03-21T04:07:54;15.53;;;8.43;;
8399;SDS011;4237;47.030;15.396;2023-03-21T04:10:23;16.13;;;10.10;;
8399;SDS011;4237;47.030;15.396;2023-03-21T04:12:51;16.17;;;9.83;;
8399;SDS011;4237;47.030;15.396;2023-03-21T04:15:19;17.23;;;9.50;;
8399;SDS011;4237;47.030;15.396;2023-03-21T04:17:48;17.67;;;9.80;;
8399;SDS011;4237;47.030;15.396;2023-03-21T04:20:17;14.27;;;9.37;;
8399;SDS011;4237;47.030;15.396;2023-03-21T04:22:46;15.73;;;9.93;;
8399;SDS011;4237;47.030;15.396;2023-03-21T04:25:15;15.30;;;9.67;;
8399;SDS011;4237;47.030;15.396;2023-03-21T04:27:43;13.63;;;9.27;;
8399;SDS011;4237;47.030;15.396;2023-03-21T04:30:14;15.23;;;9.00;;
8399;SDS011;4237;47.030;15.396;2023-03-21T04:32:42;18.30;;;9.10;;
8399;SDS011;4237;47.030;15.396;2023-03-21T04:35:11;13.90;;;9.23;;
8399;SDS011;4237;47.030;15.396;2023-03-21T04:37:39;19.37;;;10.07;;
8399;SDS011;4237;47.030;15.396;2023-03-21T04:40:08;15.43;;;9.63;;
8399;SDS011;4237;47.030;15.396;2023-03-21T04:42:37;15.20;;;10.13;;
8399;SDS011;4237;47.030;15.396;2023-03-21T04:45:06;19.07;;;9.93;;
8399;SDS011;4237;47.030;15.396;2023-03-21T04:47:34;21.13;;;10.57;;
8399;SDS011;4237;47.030;15.396;2023-03-21T04:50:03;22.57;;;10.37;;
8399;SDS011;4237;47.030;15.396;2023-03-21T04:52:31;16.83;;;10.23;;
8399;SDS011;4237;47.030;15.396;2023-03-21T04:54:59;15.53;;;9.40;;
8399;SDS011;4237;47.030;15.396;2023-03-21T04:57:28;13.73;;;8.23;;
8399;SDS011;4237;47.030;15.396;2023-03-21T04:59:56;13.73;;;8.00;;
8399;SDS011;4237;47.030;15.396;2023-03-21T05:02:24;14.07;;;8.37;;
8399;SDS011;4237;47.030;15.396;2023-03-21T05:04:53;15.77;;;8.63;;
8399;SDS011;4237;47.030;15.396;2023-03-21T05:07:22;13.97;;;9.27;;
8399;SDS011;4237;47.030;15.396;2023-03-21T05:09:52;14.00;;;8.80;;
8399;SDS011;4237;47.030;15.396;2023-03-21T05:12:20;16.30;;;9.43;;
8399;SDS011;4237;47.030;15.396;2023-03-21T05:14:49;20.03;;;10.97;;
8399;SDS011;4237;47.030;15.396;2023-03-21T05:17:17;24.57;;;14.67;;
8399;SDS011;4237;47.030;15.396;2023-03-21T05:19:47;27.03;;;13.60;;
8399;SDS011;4237;47.030;15.396;2023-03-21T05:22:17;21.70;;;13.97;;
8399;SDS011;4237;47.030;15.396;2023-03-21T05:24:45;18.37;;;11.60;;
8399;SDS011;4237;47.030;15.396;2023-03-21T05:27:17;17.90;;;9.90;;
8399;SDS011;4237;47.030;15.396;2023-03-21T05:29:47;12.20;;;8.27;;
8399;SDS011;4237;47.030;15.396;2023-03-21T05:32:15;13.47;;;8.67;;
8399;SDS011;4237;47.030;15.396;2023-03-21T05:34:43;15.17;;;8.50;;
8399;SDS011;4237;47.030;15.396;2023-03-21T05:37:12;14.63;;;8.57;;
8399;SDS011;4237;47.030;15.396;2023-03-21T05:39:40;12.40;;;8.33;;
8399;SDS011;4237;47.030;15.396;2023-03-21T05:42:08;11.00;;;7.23;;
8399;SDS011;4237;47.030;15.396;2023-03-21T05:44:36;9.47;;;6.73;;
8399;SDS011;4237;47.030;15.396;2023-03-21T05:47:06;15.27;;;6.30;;
8399;SDS011;4237;47.030;15.396;2023-03-21T05:49:35;12.73;;;6.60;;
8399;SDS011;4237;47.030;15.396;2023-03-21T05:52:03;10.33;;;5.80;;
8399;SDS011;4237;47.030;15.396;2023-03-21T05:54:31;23.03;;;6.27;;
8399;SDS011;4237;47.030;15.396;2023-03-21T05:56:59;14.73;;;6.50;;
8399;SDS011;4237;47.030;15.396;2023-03-21T05:59:27;12.03;;;6.20;;
8399;SDS011;4237;47.030;15.396;2023-03-21T06:01:56;14.97;;;7.40;;
8399;SDS011;4237;47.030;15.396;2023-03-21T06:04:24;14.37;;;7.17;;
8399;SDS011;4237;47.030;15.396;2023-03-21T06:06:52;12.90;;;6.43;;
8399;SDS011;4237;47.030;15.396;2023-03-21T06:09:21;13.43;;;7.40;;
8399;SDS011;4237;47.030;15.396;2023-03-21T06:11:50;17.97;;;8.57;;
8399;SDS011;4237;47.030;15.396;2023-03-21T06:14:18;16.67;;;7.17;;
8399;SDS011;4237;47.030;15.396;2023-03-21T06:17:07;17.03;;;7.10;;
8399;SDS011;4237;47.030;15.396;2023-03-21T06:19:35;16.43;;;8.10;;
8399;SDS011;4237;47.030;15.396;2023-03-21T06:22:04;14.70;;;7.30;;
8399;SDS011;4237;47.030;15.396;2023-03-21T06:24:32;12.73;;;7.53;;
8399;SDS011;4237;47.030;15.396;2023-03-21T06:27:00;14.97;;;8.70;;
8399;SDS011;4237;47.030;15.396;2023-03-21T06:29:28;22.20;;;9.37;;
8399;SDS011;4237;47.030;15.396;2023-03-21T06:31:57;21.10;;;8.73;;
8399;SDS011;4237;47.030;15.396;2023-03-21T06:34:25;20.07;;;7.57;;
8399;SDS011;4237;47.030;15.396;2023-03-21T06:36:54;12.93;;;6.80;;
8399;SDS011;4237;47.030;15.396;2023-03-21T06:39:22;8.57;;;5.00;;
8399;SDS011;4237;47.030;15.396;2023-03-21T06:41:50;11.47;;;5.17;;
8399;SDS011;4237;47.030;15.396;2023-03-21T06:44:19;9.20;;;5.60;;
8399;SDS011;4237;47.030;15.396;2023-03-21T06:46:48;9.13;;;5.17;;
8399;SDS011;4237;47.030;15.396;2023-03-21T06:49:17;7.33;;;5.30;;
8399;SDS011;4237;47.030;15.396;2023-03-21T06:51:46;11.50;;;5.93;;
8399;SDS011;4237;47.030;15.396;2023-03-21T06:54:14;12.73;;;5.83;;
8399;SDS011;4237;47.030;15.396;2023-03-21T06:56:44;16.47;;;5.97;;
8399;SDS011;4237;47.030;15.396;2023-03-21T06:59:13;12.20;;;5.50;;
8399;SDS011;4237;47.030;15.396;2023-03-21T07:01:41;12.27;;;4.80;;
8399;SDS011;4237;47.030;15.396;2023-03-21T07:04:09;11.67;;;4.90;;
8399;SDS011;4237;47.030;15.396;2023-03-21T07:06:38;16.80;;;5.60;;
8399;SDS011;4237;47.030;15.396;2023-03-21T07:09:06;11.73;;;4.40;;
8399;SDS011;4237;47.030;15.396;2023-03-21T07:11:35;12.73;;;4.87;;
8399;SDS011;4237;47.030;15.396;2023-03-21T07:14:04;13.53;;;5.10;;
8399;SDS011;4237;47.030;15.396;2023-03-21T07:16:32;11.17;;;5.40;;
8399;SDS011;4237;47.030;15.396;2023-03-21T07:19:01;22.83;;;8.13;;
8399;SDS011;4237;47.030;15.396;2023-03-21T07:21:29;21.27;;;7.43;;
8399;SDS011;4237;47.030;15.396;2023-03-21T07:23:57;22.80;;;7.03;;
8399;SDS011;4237;47.030;15.396;2023-03-21T07:26:25;22.17;;;6.83;;
8399;SDS011;4237;47.030;15.396;2023-03-21T07:28:53;26.40;;;6.70;;
8399;SDS011;4237;47.030;15.396;2023-03-21T07:31:21;19.80;;;6.70;;
8399;SDS011;4237;47.030;15.396;2023-03-21T07:33:52;15.57;;;6.07;;
8399;SDS011;4237;47.030;15.396;2023-03-21T07:36:20;20.03;;;6.20;;
8399;SDS011;4237;47.030;15.396;2023-03-21T07:38:49;16.70;;;5.03;;
8399;SDS011;4237;47.030;15.396;2023-03-21T07:41:17;21.83;;;5.17;;
8399;SDS011;4237;47.030;15.396;2023-03-21T07:43:45;14.70;;;5.53;;
8399;SDS011;4237;47.030;15.396;2023-03-21T07:46:14;23.87;;;6.40;;
8399;SDS011;4237;47.030;15.396;2023-03-21T07:48:42;22.07;;;6.00;;
8399;SDS011;4237;47.030;15.396;2023-03-21T07:51:10;17.60;;;6.45;;
8399;SDS011;4237;47.030;15.396;2023-03-21T07:53:38;24.95;;;5.83;;
8399;SDS011;4237;47.030;15.396;2023-03-21T07:56:10;19.10;;;5.33;;
8399;SDS011;4237;47.030;15.396;2023-03-21T07:58:38;13.20;;;4.80;;
8399;SDS011;4237;47.030;15.396;2023-03-21T08:01:06;15.43;;;5.23;;
8399;SDS011;4237;47.030;15.396;2023-03-21T08:03:34;16.17;;;6.37;;
8399;SDS011;4237;47.030;15.396;2023-03-21T08:06:04;14.10;;;5.30;;
8399;SDS011;4237;47.030;15.396;2023-03-21T08:08:32;14.47;;;4.92;;
8399;SDS011;4237;47.030;15.396;2023-03-21T08:11:02;11.57;;;4.13;;
8399;SDS011;4237;47.030;15.396;2023-03-21T08:13:31;21.27;;;4.90;;
8399;SDS011;4237;47.030;15.396;2023-03-21T08:15:59;18.77;;;5.27;;
8399;SDS011;4237;47.030;15.396;2023-03-21T08:18:27;11.63;;;4.33;;
8399;SDS011;4237;47.030;15.396;2023-03-21T08:20:56;23.53;;;4.90;;
8399;SDS011;4237;47.030;15.396;2023-03-21T08:23:24;10.37;;;4.23;;
8399;SDS011;4237;47.030;15.396;2023-03-21T08:25:53;10.97;;;4.30;;
8399;SDS011;4237;47.030;15.396;2023-03-21T08:28:22;16.70;;;4.00;;
8399;SDS011;4237;47.030;15.396;2023-03-21T08:30:50;7.60;;;3.40;;
8399;SDS011;4237;47.030;15.396;2023-03-21T08:33:19;9.10;;;3.00;;
8399;SDS011;4237;47.030;15.396;2023-03-21T08:35:47;9.07;;;3.10;;
8399;SDS011;4237;47.030;15.396;2023-03-21T08:38:16;8.23;;;3.60;;
8399;SDS011;4237;47.030;15.396;2023-03-21T08:40:44;9.20;;;3.67;;
8399;SDS011;4237;47.030;15.396;2023-03-21T08:43:12;5.97;;;3.30;;
8399;SDS011;4237;47.030;15.396;2023-03-21T08:45:40;4.67;;;2.93;;
8399;SDS011;4237;47.030;15.396;2023-03-21T08:48:08;8.70;;;3.02;;
8399;SDS011;4237;47.030;15.396;2023-03-21T08:50:37;11.22;;;3.20;;
8399;SDS011;4237;47.030;15.396;2023-03-21T08:53:05;6.87;;;3.15;;
8399;SDS011;4237;47.030;15.396;2023-03-21T08:55:33;4.50;;;2.95;;
8399;SDS011;4237;47.030;15.396;2023-03-21T08:58:01;11.48;;;3.45;;
8399;SDS011;4237;47.030;15.396;2023-03-21T09:00:29;4.45;;;2.70;;
8399;SDS011;4237;47.030;15.396;2023-03-21T09:02:58;11.48;;;2.90;;
8399;SDS011;4237;47.030;15.396;2023-03-21T09:05:27;8.33;;;2.45;;
8399;SDS011;4237;47.030;15.396;2023-03-21T09:07:56;3.52;;;2.27;;
8399;SDS011;4237;47.030;15.396;2023-03-21T09:10:24;7.40;;;2.10;;
8399;SDS011;4237;47.030;15.396;2023-03-21T09:12:53;9.48;;;2.20;;
8399;SDS011;4237;47.030;15.396;2023-03-21T09:15:24;3.63;;;1.77;;
8399;SDS011;4237;47.030;15.396;2023-03-21T09:17:52;6.03;;;1.72;;
8399;SDS011;4237;47.030;15.396;2023-03-21T09:20:21;3.35;;;1.57;;
8399;SDS011;4237;47.030;15.396;2023-03-21T09:22:51;5.33;;;1.77;;
8399;SDS011;4237;47.030;15.396;2023-03-21T09:25:19;9.58;;;1.92;;
8399;SDS011;4237;47.030;15.396;2023-03-21T09:27:48;4.00;;;1.37;;
8399;SDS011;4237;47.030;15.396;2023-03-21T09:30:19;3.07;;;1.40;;
8399;SDS011;4237;47.030;15.396;2023-03-21T09:32:50;4.53;;;0.95;;
8399;SDS011;4237;47.030;15.396;2023-03-21T09:35:20;2.47;;;1.00;;
8399;SDS011;4237;47.030;15.396;2023-03-21T09:37:48;3.72;;;1.12;;
8399;SDS011;4237;47.030;15.396;2023-03-21T09:40:18;3.53;;;1.10;;
8399;SDS011;4237;47.030;15.396;2023-03-21T09:42:57;1.40;;;0.90;;
8399;SDS011;4237;47.030;15.396;2023-03-21T09:47:50;3.73;;;1.20;;
8399;SDS011;4237;47.030;15.396;2023-03-21T09:50:24;4.83;;;1.20;;
8399;SDS011;4237;47.030;15.396;2023-03-21T09:52:56;3.10;;;1.10;;
8399;SDS011;4237;47.030;15.396;2023-03-21T09:55:25;1.47;;;1.13;;
8399;SDS011;4237;47.030;15.396;2023-03-21T10:00:43;6.83;;;0.83;;
8399;SDS011;4237;47.030;15.396;2023-03-21T10:03:21;5.00;;;1.00;;
8399;SDS011;4237;47.030;15.396;2023-03-21T10:05:54;2.80;;;1.20;;
8399;SDS011;4237;47.030;15.396;2023-03-21T10:08:27;3.90;;;1.00;;
8399;SDS011;4237;47.030;15.396;2023-03-21T10:10:59;1.63;;;0.80;;
8399;SDS011;4237;47.030;15.396;2023-03-21T10:13:30;1.43;;;0.70;;
8399;SDS011;4237;47.030;15.396;2023-03-21T10:16:08;1.83;;;1.10;;
8399;SDS011;4237;47.030;15.396;2023-03-21T10:18:30;3.37;;;1.07;;
8399;SDS011;4237;47.030;15.396;2023-03-21T10:20:59;3.10;;;0.87;;
8399;SDS011;4237;47.030;15.396;2023-03-21T10:23:29;3.80;;;0.80;;
8399;SDS011;4237;47.030;15.396;2023-03-21T10:25:58;3.10;;;1.00;;
8399;SDS011;4237;47.030;15.396;2023-03-21T10:28:28;3.57;;;1.20;;
8399;SDS011;4237;47.030;15.396;2023-03-21T10:31:00;4.47;;;0.97;;
8399;SDS011;4237;47.030;15.396;2023-03-21T10:33:35;2.43;;;0.93;;
8399;SDS011;4237;47.030;15.396;2023-03-21T10:36:05;3.33;;;0.60;;
8399;SDS011;4237;47.030;15.396;2023-03-21T10:38:29;1.63;;;0.80;;
8399;SDS011;4237;47.030;15.396;2023-03-21T10:40:58;5.00;;;0.90;;
8399;SDS011;4237;47.030;15.396;2023-03-21T10:43:31;3.43;;;1.00;;
8399;SDS011;4237;47.030;15.396;2023-03-21T10:46:16;0.60;;;0.60;;
8399;SDS011;4237;47.030;15.396;2023-03-21T10:48:49;1.13;;;0.70;;
8399;SDS011;4237;47.030;15.396;2023-03-21T10:51:19;2.30;;;0.80;;
8399;SDS011;4237;47.030;15.396;2023-03-21T10:53:53;2.50;;;0.83;;
8399;SDS011;4237;47.030;15.396;2023-03-21T10:56:17;2.17;;;0.83;;
8399;SDS011;4237;47.030;15.396;2023-03-21T10:58:47;4.27;;;0.67;;
8399;SDS011;4237;47.030;15.396;2023-03-21T11:01:23;0.57;;;0.50;;
8399;SDS011;4237;47.030;15.396;2023-03-21T11:03:48;0.57;;;0.57;;
8399;SDS011;4237;47.030;15.396;2023-03-21T11:08:53;4.40;;;0.90;;
8399;SDS011;4237;47.030;15.396;2023-03-21T11:11:23;1.20;;;0.70;;
8399;SDS011;4237;47.030;15.396;2023-03-21T11:13:58;2.93;;;0.90;;
8399;SDS011;4237;47.030;15.396;2023-03-21T11:18:58;2.60;;;0.83;;
8399;SDS011;4237;47.030;15.396;2023-03-21T11:21:25;1.17;;;0.65;;
8399;SDS011;4237;47.030;15.396;2023-03-21T11:23:54;0.85;;;0.82;;
8399;SDS011;4237;47.030;15.396;2023-03-21T11:26:30;4.83;;;1.02;;
8399;SDS011;4237;47.030;15.396;2023-03-21T11:32:01;1.10;;;0.62;;
8399;SDS011;4237;47.030;15.396;2023-03-21T11:34:56;1.75;;;0.70;;
8399;SDS011;4237;47.030;15.396;2023-03-21T11:37:37;3.67;;;0.82;;
8399;SDS011;4237;47.030;15.396;2023-03-21T11:42:58;1.33;;;0.80;;
8399;SDS011;4237;47.030;15.396;2023-03-21T11:45:31;1.20;;;1.00;;
8399;SDS011;4237;47.030;15.396;2023-03-21T11:48:09;2.13;;;0.87;;
8399;SDS011;4237;47.030;15.396;2023-03-21T11:50:37;1.50;;;0.80;;
8399;SDS011;4237;47.030;15.396;2023-03-21T11:53:16;2.63;;;0.97;;
8399;SDS011;4237;47.030;15.396;2023-03-21T11:58:30;4.87;;;0.90;;
8399;SDS011;4237;47.030;15.396;2023-03-21T12:06:46;2.03;;;0.73;;
8399;SDS011;4237;47.030;15.396;2023-03-21T12:12:47;2.35;;;0.85;;
8399;SDS011;4237;47.030;15.396;2023-03-21T12:15:16;6.25;;;1.10;;
8399;SDS011;4237;47.030;15.396;2023-03-21T12:17:49;2.87;;;1.00;;
8399;SDS011;4237;47.030;15.396;2023-03-21T12:23:19;0.70;;;0.70;;
8399;SDS011;4237;47.030;15.396;2023-03-21T12:36:49;3.65;;;1.10;;
8399;SDS011;4237;47.030;15.396;2023-03-21T12:39:32;3.70;;;1.00;;
8399;SDS011;4237;47.030;15.396;2023-03-21T12:44:48;2.65;;;0.85;;
8399;SDS011;4237;47.030;15.396;2023-03-21T12:47:18;3.50;;;1.00;;
8399;SDS011;4237;47.030;15.396;2023-03-21T12:49:56;1.75;;;0.72;;
8399;SDS011;4237;47.030;15.396;2023-03-21T12:52:29;1.12;;;0.90;;
8399;SDS011;4237;47.030;15.396;2023-03-21T12:54:54;2.08;;;0.72;;
8399;SDS011;4237;47.030;15.396;2023-03-21T12:57:40;3.35;;;1.20;;
8399;SDS011;4237;47.030;15.396;2023-03-21T13:02:52;1.80;;;1.00;;
8399;SDS011;4237;47.030;15.396;2023-03-21T13:10:32;0.73;;;0.73;;
8399;SDS011;4237;47.030;15.396;2023-03-21T13:16:01;2.23;;;1.03;;
8399;SDS011;4237;47.030;15.396;2023-03-21T13:18:56;1.67;;;0.87;;
8399;SDS011;4237;47.030;15.396;2023-03-21T13:21:35;4.10;;;0.97;;
8399;SDS011;4237;47.030;15.396;2023-03-21T13:24:17;3.10;;;0.83;;
8399;SDS011;4237;47.030;15.396;2023-03-21T13:32:17;1.23;;;0.90;;
8399;SDS011;4237;47.030;15.396;2023-03-21T13:34:58;1.27;;;0.90;;
8399;SDS011;4237;47.030;15.396;2023-03-21T13:37:26;1.85;;;0.95;;
8399;SDS011;4237;47.030;15.396;2023-03-21T13:39:59;1.52;;;0.82;;
8399;SDS011;4237;47.030;15.396;2023-03-21T13:42:32;1.52;;;1.10;;
8399;SDS011;4237;47.030;15.396;2023-03-21T13:45:03;1.15;;;0.95;;
8399;SDS011;4237;47.030;15.396;2023-03-21T13:53:32;1.35;;;1.10;;
8399;SDS011;4237;47.030;15.396;2023-03-21T13:55:35;0.98;;;0.98;;
8399;SDS011;4237;47.030;15.396;2023-03-21T14:01:33;3.40;;;0.90;;
8399;SDS011;4237;47.030;15.396;2023-03-21T14:06:55;1.27;;;1.07;;
8399;SDS011;4237;47.030;15.396;2023-03-21T14:09:34;2.10;;;1.00;;
8399;SDS011;4237;47.030;15.396;2023-03-21T14:12:05;2.50;;;1.00;;
8399;SDS011;4237;47.030;15.396;2023-03-21T14:14:40;1.60;;;1.00;;
8399;SDS011;4237;47.030;15.396;2023-03-21T14:17:14;1.10;;;0.90;;
8399;SDS011;4237;47.030;15.396;2023-03-21T14:19:53;4.30;;;0.90;;
8399;SDS011;4237;47.030;15.396;2023-03-21T14:22:24;1.83;;;0.90;;
8399;SDS011;4237;47.030;15.396;2023-03-21T14:24:54;4.50;;;1.30;;
8399;SDS011;4237;47.030;15.396;2023-03-21T14:27:27;2.50;;;1.00;;
8399;SDS011;4237;47.030;15.396;2023-03-21T14:29:57;6.00;;;1.20;;
8399;SDS011;4237;47.030;15.396;2023-03-21T14:32:27;3.60;;;1.30;;
8399;SDS011;4237;47.030;15.396;2023-03-21T14:34:58;1.00;;;0.83;;
8399;SDS011;4237;47.030;15.396;2023-03-21T14:37:35;8.20;;;1.00;;
8399;SDS011;4237;47.030;15.396;2023-03-21T14:40:04;1.50;;;0.90;;
8399;SDS011;4237;47.030;15.396;2023-03-21T14:42:35;1.83;;;0.90;;
8399;SDS011;4237;47.030;15.396;2023-03-21T14:45:15;3.27;;;1.17;;
8399;SDS011;4237;47.030;15.396;2023-03-21T14:47:54;0.70;;;0.70;;
8399;SDS011;4237;47.030;15.396;2023-03-21T14:50:35;1.43;;;0.90;;
8399;SDS011;4237;47.030;15.396;2023-03-21T14:53:06;4.73;;;0.87;;
8399;SDS011;4237;47.030;15.396;2023-03-21T14:58:23;1.93;;;1.10;;
8399;SDS011;4237;47.030;15.396;2023-03-21T15:00:54;1.87;;;1.10;;
8399;SDS011;4237;47.030;15.396;2023-03-21T15:03:25;0.77;;;0.70;;
8399;SDS011;4237;47.030;15.396;2023-03-21T15:05:54;3.43;;;1.10;;
8399;SDS011;4237;47.030;15.396;2023-03-21T15:08:25;1.30;;;1.10;;
8399;SDS011;4237;47.030;15.396;2023-03-21T15:10:56;7.40;;;1.47;;
8399;SDS011;4237;47.030;15.396;2023-03-21T15:13:35;3.17;;;1.13;;
8399;SDS011;4237;47.030;15.396;2023-03-21T15:16:01;2.40;;;1.30;;
8399;SDS011;4237;47.030;15.396;2023-03-21T15:18:31;4.70;;;1.40;;
8399;SDS011;4237;47.030;15.396;2023-03-21T15:21:04;2.63;;;1.10;;
8399;SDS011;4237;47.030;15.396;2023-03-21T15:23:36;2.53;;;1.10;;
8399;SDS011;4237;47.030;15.396;2023-03-21T15:26:12;11.80;;;1.50;;
8399;SDS011;4237;47.030;15.396;2023-03-21T15:28:47;8.37;;;1.23;;
8399;SDS011;4237;47.030;15.396;2023-03-21T15:31:18;3.47;;;1.37;;
8399;SDS011;4237;47.030;15.396;2023-03-21T15:33:49;1.90;;;1.17;;
8399;SDS011;4237;47.030;15.396;2023-03-21T15:36:44;4.53;;;1.00;;
8399;SDS011;4237;47.030;15.396;2023-03-21T15:38:52;4.33;;;1.20;;
8399;SDS011;4237;47.030;15.396;2023-03-21T15:41:24;3.77;;;1.10;;
8399;SDS011;4237;47.030;15.396;2023-03-21T15:46:46;1.20;;;0.83;;
8399;SDS011;4237;47.030;15.396;2023-03-21T15:49:17;10.43;;;1.70;;
8399;SDS011;4237;47.030;15.396;2023-03-21T15:54:41;2.10;;;1.00;;
8399;SDS011;4237;47.030;15.396;2023-03-21T15:57:24;3.60;;;0.90;;
8399;SDS011;4237;47.030;15.396;2023-03-21T16:00:41;4.93;;;1.20;;
8399;SDS011;4237;47.030;15.396;2023-03-21T16:02:47;1.37;;;0.90;;
8399;SDS011;4237;47.030;15.396;2023-03-21T16:05:23;2.73;;;1.10;;
8399;SDS011;4237;47.030;15.396;2023-03-21T16:08:05;5.27;;;1.43;;
8399;SDS011;4237;47.030;15.396;2023-03-21T16:10:34;4.70;;;0.90;;
8399;SDS011;4237;47.030;15.396;2023-03-21T16:13:04;5.53;;;1.47;;
8399;SDS011;4237;47.030;15.396;2023-03-21T16:15:33;4.63;;;1.50;;
8399;SDS011;4237;47.030;15.396;2023-03-21T16:18:02;1.13;;;0.87;;
8399;SDS011;4237;47.030;15.396;2023-03-21T16:20:34;4.80;;;1.30;;
8399;SDS011;4237;47.030;15.396;2023-03-21T16:23:05;4.40;;;1.00;;
8399;SDS011;4237;47.030;15.396;2023-03-21T16:25:36;1.50;;;1.00;;
8399;SDS011;4237;47.030;15.396;2023-03-21T16:28:25;3.13;;;1.10;;
8399;SDS011;4237;47.030;15.396;2023-03-21T16:30:54;2.37;;;1.20;;
8399;SDS011;4237;47.030;15.396;2023-03-21T16:33:22;4.67;;;1.23;;
8399;SDS011;4237;47.030;15.396;2023-03-21T16:35:54;7.30;;;1.73;;
8399;SDS011;4237;47.030;15.396;2023-03-21T16:38:23;2.87;;;1.33;;
8399;SDS011;4237;47.030;15.396;2023-03-21T16:40:52;6.33;;;1.30;;
8399;SDS011;4237;47.030;15.396;2023-03-21T16:43:20;3.10;;;1.30;;
8399;SDS011;4237;47.030;15.396;2023-03-21T16:45:49;3.07;;;1.43;;
8399;SDS011;4237;47.030;15.396;2023-03-21T16:48:18;3.67;;;1.30;;
8399;SDS011;4237;47.030;15.396;2023-03-21T16:50:46;6.83;;;1.53;;
8399;SDS011;4237;47.030;15.396;2023-03-21T16:53:15;2.93;;;1.27;;
8399;SDS011;4237;47.030;15.396;2023-03-21T16:55:44;1.10;;;1.00;;
8399;SDS011;4237;47.030;15.396;2023-03-21T16:58:13;12.37;;;2.00;;
8399;SDS011;4237;47.030;15.396;2023-03-21T17:00:42;4.13;;;1.03;;